sensor_id;sensor_type;location;lat;lon;timestamp;pressure;altitude;pressure_sealevel;temperature;humidity
59417;BME280;45222;52.458;20.914;2023-04-15T00:02:14;99984.70;;;9.51;74.83
59417;BME280;45222;52.458;20.914;2023-04-15T00:05:59;99981.45;;;9.55;74.77
59417;BME280;45222;52.458;20.914;2023-04-15T00:09:45;99983.83;;;9.58;74.85
59417;BME280;45222;52.458;20.914;2023-04-15T00:13:31;99979.02;;;9.58;74.65
59417;BME280;45222;52.458;20.914;2023-04-15T00:17:16;99978.29;;;9.59;74.71
59417;BME280;45222;52.458;20.914;2023-04-15T00:21:02;99977.27;;;9.61;74.68
59417;BME280;45222;52.458;20.914;2023-04-15T00:24:48;99976.34;;;9.62;74.91
59417;BME280;45222;52.458;20.914;2023-04-15T00:28:33;99974.52;;;9.63;74.94
59417;BME280;45222;52.458;20.914;2023-04-15T00:32:18;99973.50;;;9.62;74.72
59417;BME280;45222;52.458;20.914;2023-04-15T00:36:06;99977.30;;;9.60;74.71
59417;BME280;45222;52.458;20.914;2023-04-15T00:39:52;99971.77;;;9.61;74.84
59417;BME280;45222;52.458;20.914;2023-04-15T00:43:37;99973.46;;;9.62;75.01
59417;BME280;45222;52.458;20.914;2023-04-15T00:47:22;99967.23;;;9.63;75.13
59417;BME280;45222;52.458;20.914;2023-04-15T00:51:08;99968.20;;;9.61;75.07
59417;BME280;45222;52.458;20.914;2023-04-15T00:54:54;99972.73;;;9.59;75.52
59417;BME280;45222;52.458;20.914;2023-04-15T00:58:39;99972.28;;;9.58;76.11
59417;BME280;45222;52.458;20.914;2023-04-15T01:02:24;99970.70;;;9.58;76.28
59417;BME280;45222;52.458;20.914;2023-04-15T01:06:10;99972.77;;;9.56;76.20
59417;BME280;45222;52.458;20.914;2023-04-15T01:09:56;99973.39;;;9.53;76.37
59417;BME280;45222;52.458;20.914;2023-04-15T01:13:41;99966.93;;;9.51;76.04
59417;BME280;45222;52.458;20.914;2023-04-15T01:17:27;99971.44;;;9.53;75.97
59417;BME280;45222;52.458;20.914;2023-04-15T01:21:12;99971.27;;;9.57;76.51
59417;BME280;45222;52.458;20.914;2023-04-15T01:25:04;99971.83;;;9.57;76.65
59417;BME280;45222;52.458;20.914;2023-04-15T01:28:51;99974.04;;;9.51;77.72
59417;BME280;45222;52.458;20.914;2023-04-15T01:32:36;99974.84;;;9.46;78.35
59417;BME280;45222;52.458;20.914;2023-04-15T01:36:21;99971.52;;;9.38;79.09
59417;BME280;45222;52.458;20.914;2023-04-15T01:40:08;99968.63;;;9.31;79.27
59417;BME280;45222;52.458;20.914;2023-04-15T01:43:54;99965.31;;;9.27;79.42
59417;BME280;45222;52.458;20.914;2023-04-15T01:47:40;99966.58;;;9.23;79.88
59417;BME280;45222;52.458;20.914;2023-04-15T01:51:25;99962.96;;;9.21;79.97
59417;BME280;45222;52.458;20.914;2023-04-15T01:55:11;99965.04;;;9.21;80.03
59417;BME280;45222;52.458;20.914;2023-04-15T01:58:57;99965.11;;;9.24;80.05
59417;BME280;45222;52.458;20.914;2023-04-15T02:02:42;99965.73;;;9.25;79.75
59417;BME280;45222;52.458;20.914;2023-04-15T02:06:28;99966.08;;;9.25;79.78
59417;BME280;45222;52.458;20.914;2023-04-15T02:10:13;99963.40;;;9.26;80.03
59417;BME280;45222;52.458;20.914;2023-04-15T02:14:00;99966.87;;;9.28;79.79
59417;BME280;45222;52.458;20.914;2023-04-15T02:21:33;99961.39;;;9.31;79.90
59417;BME280;45222;52.458;20.914;2023-04-15T02:25:18;99962.89;;;9.29;79.69
59417;BME280;45222;52.458;20.914;2023-04-15T02:29:05;99964.08;;;9.30;79.49
59417;BME280;45222;52.458;20.914;2023-04-15T02:32:50;99964.46;;;9.33;79.16
59417;BME280;45222;52.458;20.914;2023-04-15T02:36:35;99965.20;;;9.36;79.19
59417;BME280;45222;52.458;20.914;2023-04-15T02:40:21;99964.40;;;9.38;79.75
59417;BME280;45222;52.458;20.914;2023-04-15T02:44:06;99961.71;;;9.35;80.27
59417;BME280;45222;52.458;20.914;2023-04-15T02:47:53;99961.79;;;9.30;80.50
59417;BME280;45222;52.458;20.914;2023-04-15T02:51:38;99960.97;;;9.29;80.48
59417;BME280;45222;52.458;20.914;2023-04-15T02:55:24;99956.29;;;9.26;80.92
59417;BME280;45222;52.458;20.914;2023-04-15T02:59:09;99960.95;;;9.25;81.11
59417;BME280;45222;52.458;20.914;2023-04-15T03:03:00;99962.25;;;9.24;81.11
59417;BME280;45222;52.458;20.914;2023-04-15T03:06:46;99961.09;;;9.22;81.44
59417;BME280;45222;52.458;20.914;2023-04-15T03:10:31;99962.50;;;9.19;81.64
59417;BME280;45222;52.458;20.914;2023-04-15T03:14:17;99965.54;;;9.19;81.76
59417;BME280;45222;52.458;20.914;2023-04-15T03:18:02;99968.27;;;9.17;82.08
59417;BME280;45222;52.458;20.914;2023-04-15T03:21:47;99969.65;;;9.18;81.89
59417;BME280;45222;52.458;20.914;2023-04-15T03:25:32;99969.36;;;9.21;81.86
59417;BME280;45222;52.458;20.914;2023-04-15T03:29:18;99970.13;;;9.23;81.70
59417;BME280;45222;52.458;20.914;2023-04-15T03:33:04;99974.24;;;9.22;81.86
59417;BME280;45222;52.458;20.914;2023-04-15T03:36:49;99973.41;;;9.21;82.02
59417;BME280;45222;52.458;20.914;2023-04-15T03:40:34;99975.08;;;9.19;82.07
59417;BME280;45222;52.458;20.914;2023-04-15T03:44:19;99974.41;;;9.18;82.23
59417;BME280;45222;52.458;20.914;2023-04-15T03:48:05;99974.20;;;9.16;82.28
59417;BME280;45222;52.458;20.914;2023-04-15T03:51:50;99972.05;;;9.12;82.25
59417;BME280;45222;52.458;20.914;2023-04-15T03:55:36;99977.39;;;9.11;82.54
59417;BME280;45222;52.458;20.914;2023-04-15T03:59:21;99974.90;;;9.12;82.51
59417;BME280;45222;52.458;20.914;2023-04-15T04:03:06;99973.80;;;9.13;82.60
59417;BME280;45222;52.458;20.914;2023-04-15T04:06:52;99977.59;;;9.15;82.29
59417;BME280;45222;52.458;20.914;2023-04-15T04:10:37;99979.41;;;9.14;82.40
59417;BME280;45222;52.458;20.914;2023-04-15T04:14:22;99974.58;;;9.15;82.42
59417;BME280;45222;52.458;20.914;2023-04-15T04:18:12;99973.58;;;9.17;82.22
59417;BME280;45222;52.458;20.914;2023-04-15T04:21:57;99975.41;;;9.20;82.43
59417;BME280;45222;52.458;20.914;2023-04-15T04:25:43;99974.71;;;9.20;82.50
59417;BME280;45222;52.458;20.914;2023-04-15T04:29:28;99972.17;;;9.21;82.25
59417;BME280;45222;52.458;20.914;2023-04-15T04:33:13;99975.61;;;9.23;82.22
59417;BME280;45222;52.458;20.914;2023-04-15T04:36:58;99973.23;;;9.24;82.46
59417;BME280;45222;52.458;20.914;2023-04-15T04:40:44;99974.77;;;9.26;82.43
59417;BME280;45222;52.458;20.914;2023-04-15T04:44:29;99973.70;;;9.26;82.69
59417;BME280;45222;52.458;20.914;2023-04-15T04:48:15;99975.96;;;9.23;82.83
59417;BME280;45222;52.458;20.914;2023-04-15T04:52:00;99976.34;;;9.23;83.14
59417;BME280;45222;52.458;20.914;2023-04-15T04:55:46;99977.55;;;9.23;83.39
59417;BME280;45222;52.458;20.914;2023-04-15T04:59:33;99979.95;;;9.21;83.74
59417;BME280;45222;52.458;20.914;2023-04-15T05:03:18;99979.36;;;9.19;84.01
59417;BME280;45222;52.458;20.914;2023-04-15T05:07:03;99979.81;;;9.13;84.64
59417;BME280;45222;52.458;20.914;2023-04-15T05:10:48;99981.05;;;9.13;84.72
59417;BME280;45222;52.458;20.914;2023-04-15T05:14:34;99983.96;;;9.08;85.58
59417;BME280;45222;52.458;20.914;2023-04-15T05:18:19;99985.22;;;9.08;85.54
59417;BME280;45222;52.458;20.914;2023-04-15T05:22:04;99987.48;;;9.08;85.82
59417;BME280;45222;52.458;20.914;2023-04-15T05:25:49;99989.23;;;9.09;85.91
59417;BME280;45222;52.458;20.914;2023-04-15T05:29:34;99990.67;;;9.08;85.85
59417;BME280;45222;52.458;20.914;2023-04-15T05:33:20;99987.73;;;9.07;86.15
59417;BME280;45222;52.458;20.914;2023-04-15T05:37:05;99993.09;;;9.07;86.31
59417;BME280;45222;52.458;20.914;2023-04-15T05:40:50;99992.73;;;9.03;86.42
59417;BME280;45222;52.458;20.914;2023-04-15T05:44:35;99992.55;;;9.03;86.58
59417;BME280;45222;52.458;20.914;2023-04-15T05:48:20;99991.29;;;9.03;87.06
59417;BME280;45222;52.458;20.914;2023-04-15T05:52:06;99993.44;;;9.03;86.86
59417;BME280;45222;52.458;20.914;2023-04-15T05:55:51;99991.54;;;9.02;87.02
59417;BME280;45222;52.458;20.914;2023-04-15T05:59:36;99995.23;;;8.99;87.47
59417;BME280;45222;52.458;20.914;2023-04-15T06:03:22;99997.11;;;8.96;87.54
59417;BME280;45222;52.458;20.914;2023-04-15T06:07:07;99999.29;;;8.99;87.60
59417;BME280;45222;52.458;20.914;2023-04-15T06:10:52;99998.27;;;9.02;87.63
59417;BME280;45222;52.458;20.914;2023-04-15T06:14:37;100001.27;;;9.06;87.97
59417;BME280;45222;52.458;20.914;2023-04-15T06:18:24;100007.74;;;9.04;87.93
59417;BME280;45222;52.458;20.914;2023-04-15T06:22:09;100009.27;;;8.98;88.29
59417;BME280;45222;52.458;20.914;2023-04-15T06:25:54;100008.98;;;8.96;88.32
59417;BME280;45222;52.458;20.914;2023-04-15T06:29:39;100011.80;;;8.97;88.48
59417;BME280;45222;52.458;20.914;2023-04-15T06:33:25;100012.07;;;8.95;88.62
59417;BME280;45222;52.458;20.914;2023-04-15T06:37:10;100012.81;;;8.98;88.44
59417;BME280;45222;52.458;20.914;2023-04-15T06:40:59;100015.76;;;9.00;88.79
59417;BME280;45222;52.458;20.914;2023-04-15T06:44:45;100016.86;;;8.99;88.72
59417;BME280;45222;52.458;20.914;2023-04-15T06:48:30;100022.96;;;8.97;89.08
59417;BME280;45222;52.458;20.914;2023-04-15T06:52:15;100025.48;;;8.96;88.93
59417;BME280;45222;52.458;20.914;2023-04-15T06:56:00;100024.97;;;8.96;88.86
59417;BME280;45222;52.458;20.914;2023-04-15T06:59:45;100027.27;;;8.96;89.06
59417;BME280;45222;52.458;20.914;2023-04-15T07:03:31;100031.25;;;8.98;89.06
59417;BME280;45222;52.458;20.914;2023-04-15T07:07:16;100030.93;;;8.94;89.10
59417;BME280;45222;52.458;20.914;2023-04-15T07:11:02;100040.08;;;8.88;89.05
59417;BME280;45222;52.458;20.914;2023-04-15T07:14:47;100045.59;;;8.88;89.34
59417;BME280;45222;52.458;20.914;2023-04-15T07:18:33;100045.77;;;8.88;89.46
59417;BME280;45222;52.458;20.914;2023-04-15T07:22:18;100047.34;;;8.88;89.42
59417;BME280;45222;52.458;20.914;2023-04-15T07:26:03;100046.89;;;8.87;89.61
59417;BME280;45222;52.458;20.914;2023-04-15T07:29:48;100043.73;;;8.85;89.48
59417;BME280;45222;52.458;20.914;2023-04-15T07:33:35;100045.36;;;8.85;89.65
59417;BME280;45222;52.458;20.914;2023-04-15T07:37:21;100045.98;;;8.87;89.63
59417;BME280;45222;52.458;20.914;2023-04-15T07:41:06;100048.61;;;8.91;89.82
59417;BME280;45222;52.458;20.914;2023-04-15T07:44:51;100048.15;;;8.97;89.64
59417;BME280;45222;52.458;20.914;2023-04-15T07:48:36;100047.61;;;8.97;89.65
59417;BME280;45222;52.458;20.914;2023-04-15T07:52:21;100044.48;;;8.96;89.64
59417;BME280;45222;52.458;20.914;2023-04-15T07:56:11;100046.04;;;8.97;89.75
59417;BME280;45222;52.458;20.914;2023-04-15T08:00:00;100044.61;;;9.01;89.66
59417;BME280;45222;52.458;20.914;2023-04-15T08:03:47;100045.02;;;9.04;89.76
59417;BME280;45222;52.458;20.914;2023-04-15T08:07:32;100049.33;;;9.06;90.00
59417;BME280;45222;52.458;20.914;2023-04-15T08:11:18;100044.91;;;9.09;89.84
59417;BME280;45222;52.458;20.914;2023-04-15T08:15:04;100045.21;;;9.10;89.97
59417;BME280;45222;52.458;20.914;2023-04-15T08:18:51;100040.67;;;9.09;90.14
59417;BME280;45222;52.458;20.914;2023-04-15T08:22:36;100042.73;;;9.07;89.84
59417;BME280;45222;52.458;20.914;2023-04-15T08:26:22;100040.34;;;9.05;89.72
59417;BME280;45222;52.458;20.914;2023-04-15T08:30:09;100046.92;;;9.08;89.97
59417;BME280;45222;52.458;20.914;2023-04-15T08:33:54;100045.62;;;9.10;90.00
59417;BME280;45222;52.458;20.914;2023-04-15T08:37:40;100044.30;;;9.15;90.12
59417;BME280;45222;52.458;20.914;2023-04-15T08:41:26;100044.66;;;9.22;89.77
59417;BME280;45222;52.458;20.914;2023-04-15T08:45:18;100049.98;;;9.26;89.86
59417;BME280;45222;52.458;20.914;2023-04-15T08:49:04;100045.97;;;9.29;89.69
59417;BME280;45222;52.458;20.914;2023-04-15T08:52:55;100046.95;;;9.26;89.67
59417;BME280;45222;52.458;20.914;2023-04-15T08:56:42;100047.48;;;9.23;89.67
59417;BME280;45222;52.458;20.914;2023-04-15T09:00:28;100050.66;;;9.23;89.85
59417;BME280;45222;52.458;20.914;2023-04-15T09:04:14;100045.94;;;9.25;89.82
59417;BME280;45222;52.458;20.914;2023-04-15T09:08:00;100047.55;;;9.29;90.13
59417;BME280;45222;52.458;20.914;2023-04-15T09:11:45;100049.20;;;9.32;90.28
59417;BME280;45222;52.458;20.914;2023-04-15T09:15:33;100049.95;;;9.37;90.28
59417;BME280;45222;52.458;20.914;2023-04-15T09:19:22;100050.80;;;9.43;90.11
59417;BME280;45222;52.458;20.914;2023-04-15T09:23:13;100051.23;;;9.48;89.92
59417;BME280;45222;52.458;20.914;2023-04-15T09:26:58;100052.56;;;9.53;89.60
59417;BME280;45222;52.458;20.914;2023-04-15T09:30:44;100053.27;;;9.57;89.50
59417;BME280;45222;52.458;20.914;2023-04-15T09:34:36;100052.83;;;9.69;89.59
59417;BME280;45222;52.458;20.914;2023-04-15T09:38:22;100052.85;;;9.84;89.63
59417;BME280;45222;52.458;20.914;2023-04-15T09:42:07;100055.59;;;9.89;89.23
59417;BME280;45222;52.458;20.914;2023-04-15T09:45:53;100059.60;;;9.91;89.20
59417;BME280;45222;52.458;20.914;2023-04-15T09:49:40;100060.82;;;9.87;88.91
59417;BME280;45222;52.458;20.914;2023-04-15T09:53:39;100065.20;;;9.85;89.03
59417;BME280;45222;52.458;20.914;2023-04-15T09:57:37;100068.96;;;9.85;88.97
59417;BME280;45222;52.458;20.914;2023-04-15T10:01:28;100069.28;;;9.85;88.95
59417;BME280;45222;52.458;20.914;2023-04-15T10:05:16;100075.49;;;9.85;88.83
59417;BME280;45222;52.458;20.914;2023-04-15T10:09:01;100072.73;;;9.90;88.83
59417;BME280;45222;52.458;20.914;2023-04-15T10:12:46;100072.33;;;9.99;89.10
59417;BME280;45222;52.458;20.914;2023-04-15T10:16:33;100076.80;;;10.09;88.75
59417;BME280;45222;52.458;20.914;2023-04-15T10:20:20;100070.48;;;10.14;88.65
59417;BME280;45222;52.458;20.914;2023-04-15T10:24:07;100071.33;;;10.22;88.65
59417;BME280;45222;52.458;20.914;2023-04-15T10:27:53;100073.11;;;10.25;88.35
59417;BME280;45222;52.458;20.914;2023-04-15T10:31:38;100072.90;;;10.29;88.84
59417;BME280;45222;52.458;20.914;2023-04-15T10:35:25;100068.03;;;10.34;88.80
59417;BME280;45222;52.458;20.914;2023-04-15T10:39:38;100071.44;;;10.37;88.28
59417;BME280;45222;52.458;20.914;2023-04-15T10:43:25;100072.63;;;10.38;88.03
59417;BME280;45222;52.458;20.914;2023-04-15T10:47:12;100071.38;;;10.42;88.09
59417;BME280;45222;52.458;20.914;2023-04-15T10:50:57;100069.94;;;10.42;87.94
59417;BME280;45222;52.458;20.914;2023-04-15T10:54:45;100069.30;;;10.44;87.80
59417;BME280;45222;52.458;20.914;2023-04-15T10:58:41;100072.27;;;10.49;87.65
59417;BME280;45222;52.458;20.914;2023-04-15T11:02:38;100071.55;;;10.56;87.62
59417;BME280;45222;52.458;20.914;2023-04-15T11:06:43;100068.31;;;10.70;87.49
59417;BME280;45222;52.458;20.914;2023-04-15T11:10:52;100068.54;;;10.89;87.62
59417;BME280;45222;52.458;20.914;2023-04-15T11:14:40;100070.80;;;11.03;87.43
59417;BME280;45222;52.458;20.914;2023-04-15T11:18:33;100075.27;;;11.12;87.10
59417;BME280;45222;52.458;20.914;2023-04-15T11:22:18;100071.36;;;11.15;86.23
59417;BME280;45222;52.458;20.914;2023-04-15T11:26:04;100072.64;;;11.18;86.62
59417;BME280;45222;52.458;20.914;2023-04-15T11:29:52;100073.30;;;11.19;86.25
59417;BME280;45222;52.458;20.914;2023-04-15T11:33:43;100077.19;;;11.16;86.14
59417;BME280;45222;52.458;20.914;2023-04-15T11:37:29;100077.38;;;11.16;86.07
59417;BME280;45222;52.458;20.914;2023-04-15T11:41:20;100077.69;;;11.13;85.84
59417;BME280;45222;52.458;20.914;2023-04-15T11:45:10;100077.31;;;11.13;85.88
59417;BME280;45222;52.458;20.914;2023-04-15T11:48:55;100076.16;;;11.19;85.99
59417;BME280;45222;52.458;20.914;2023-04-15T11:52:40;100078.39;;;11.23;85.88
59417;BME280;45222;52.458;20.914;2023-04-15T11:56:26;100077.83;;;11.23;85.92
59417;BME280;45222;52.458;20.914;2023-04-15T12:00:13;100081.63;;;11.20;85.33
59417;BME280;45222;52.458;20.914;2023-04-15T12:04:00;100079.91;;;11.09;84.94
59417;BME280;45222;52.458;20.914;2023-04-15T12:07:59;100076.06;;;11.01;85.48
59417;BME280;45222;52.458;20.914;2023-04-15T12:11:48;100079.89;;;10.96;85.65
59417;BME280;45222;52.458;20.914;2023-04-15T12:15:37;100082.55;;;10.96;85.71
59417;BME280;45222;52.458;20.914;2023-04-15T12:19:24;100089.95;;;11.05;85.85
59417;BME280;45222;52.458;20.914;2023-04-15T12:23:10;100089.17;;;11.18;85.84
59417;BME280;45222;52.458;20.914;2023-04-15T12:26:57;100091.01;;;11.27;85.28
59417;BME280;45222;52.458;20.914;2023-04-15T12:30:49;100094.99;;;11.26;84.82
59417;BME280;45222;52.458;20.914;2023-04-15T12:34:36;100094.48;;;11.19;84.71
59417;BME280;45222;52.458;20.914;2023-04-15T12:38:22;100096.47;;;11.12;84.80
59417;BME280;45222;52.458;20.914;2023-04-15T12:42:08;100100.16;;;11.09;84.80
59417;BME280;45222;52.458;20.914;2023-04-15T12:45:53;100104.09;;;11.09;84.70
59417;BME280;45222;52.458;20.914;2023-04-15T12:49:39;100104.98;;;11.03;84.62
59417;BME280;45222;52.458;20.914;2023-04-15T12:53:25;100111.40;;;10.92;84.67
59417;BME280;45222;52.458;20.914;2023-04-15T12:57:11;100117.58;;;10.80;84.81
59417;BME280;45222;52.458;20.914;2023-04-15T13:00:56;100121.23;;;10.71;85.05
59417;BME280;45222;52.458;20.914;2023-04-15T13:04:41;100121.14;;;10.67;85.41
59417;BME280;45222;52.458;20.914;2023-04-15T13:08:26;100125.63;;;10.66;85.44
59417;BME280;45222;52.458;20.914;2023-04-15T13:12:11;100130.38;;;10.60;85.14
59417;BME280;45222;52.458;20.914;2023-04-15T13:15:57;100135.63;;;10.48;84.93
59417;BME280;45222;52.458;20.914;2023-04-15T13:19:43;100144.55;;;10.44;85.36
59417;BME280;45222;52.458;20.914;2023-04-15T13:23:28;100154.15;;;10.43;85.74
59417;BME280;45222;52.458;20.914;2023-04-15T13:27:13;100161.77;;;10.44;85.91
59417;BME280;45222;52.458;20.914;2023-04-15T13:30:59;100169.90;;;10.41;85.87
59417;BME280;45222;52.458;20.914;2023-04-15T13:34:45;100176.08;;;10.31;85.78
59417;BME280;45222;52.458;20.914;2023-04-15T13:38:30;100179.77;;;10.18;85.82
59417;BME280;45222;52.458;20.914;2023-04-15T13:42:16;100179.88;;;10.05;85.47
59417;BME280;45222;52.458;20.914;2023-04-15T13:46:03;100181.90;;;9.96;85.44
59417;BME280;45222;52.458;20.914;2023-04-15T13:49:48;100186.75;;;9.91;85.93
59417;BME280;45222;52.458;20.914;2023-04-15T13:53:34;100187.64;;;9.88;86.14
59417;BME280;45222;52.458;20.914;2023-04-15T13:57:19;100187.89;;;9.86;86.30
59417;BME280;45222;52.458;20.914;2023-04-15T14:01:05;100185.50;;;9.87;86.57
59417;BME280;45222;52.458;20.914;2023-04-15T14:04:50;100188.29;;;9.89;86.38
59417;BME280;45222;52.458;20.914;2023-04-15T14:08:35;100188.52;;;9.91;86.51
59417;BME280;45222;52.458;20.914;2023-04-15T14:12:20;100192.30;;;10.01;86.39
59417;BME280;45222;52.458;20.914;2023-04-15T14:16:06;100195.65;;;10.13;86.45
59417;BME280;45222;52.458;20.914;2023-04-15T14:19:52;100197.27;;;10.23;86.49
59417;BME280;45222;52.458;20.914;2023-04-15T14:23:38;100192.77;;;10.24;86.25
59417;BME280;45222;52.458;20.914;2023-04-15T14:27:23;100192.24;;;10.20;85.87
59417;BME280;45222;52.458;20.914;2023-04-15T14:31:08;100198.23;;;10.18;85.55
59417;BME280;45222;52.458;20.914;2023-04-15T14:34:53;100201.21;;;10.15;85.21
59417;BME280;45222;52.458;20.914;2023-04-15T14:38:38;100200.21;;;10.14;85.22
59417;BME280;45222;52.458;20.914;2023-04-15T14:42:23;100207.69;;;10.21;85.23
59417;BME280;45222;52.458;20.914;2023-04-15T14:46:10;100208.11;;;10.31;84.96
59417;BME280;45222;52.458;20.914;2023-04-15T14:49:55;100214.12;;;10.38;84.49
59417;BME280;45222;52.458;20.914;2023-04-15T14:53:40;100221.04;;;10.35;84.03
59417;BME280;45222;52.458;20.914;2023-04-15T14:57:26;100220.36;;;10.35;84.02
59417;BME280;45222;52.458;20.914;2023-04-15T15:01:11;100214.49;;;10.34;84.04
59417;BME280;45222;52.458;20.914;2023-04-15T15:04:57;100220.90;;;10.34;84.22
59417;BME280;45222;52.458;20.914;2023-04-15T15:08:43;100232.17;;;10.29;83.94
59417;BME280;45222;52.458;20.914;2023-04-15T15:12:28;100240.55;;;10.25;83.60
59417;BME280;45222;52.458;20.914;2023-04-15T15:16:13;100242.41;;;10.19;83.54
59417;BME280;45222;52.458;20.914;2023-04-15T15:19:58;100242.84;;;10.18;83.69
59417;BME280;45222;52.458;20.914;2023-04-15T15:23:44;100241.90;;;10.19;83.75
59417;BME280;45222;52.458;20.914;2023-04-15T15:27:29;100240.14;;;10.22;83.92
59417;BME280;45222;52.458;20.914;2023-04-15T15:31:15;100246.94;;;10.29;83.54
59417;BME280;45222;52.458;20.914;2023-04-15T15:35:00;100246.00;;;10.37;83.43
59417;BME280;45222;52.458;20.914;2023-04-15T15:38:45;100244.64;;;10.47;82.79
59417;BME280;45222;52.458;20.914;2023-04-15T15:42:32;100250.27;;;10.55;82.55
59417;BME280;45222;52.458;20.914;2023-04-15T15:46:17;100256.85;;;10.59;81.87
59417;BME280;45222;52.458;20.914;2023-04-15T15:50:03;100252.80;;;10.58;81.64
59417;BME280;45222;52.458;20.914;2023-04-15T15:53:48;100259.43;;;10.60;81.24
59417;BME280;45222;52.458;20.914;2023-04-15T15:57:34;100263.34;;;10.61;80.89
59417;BME280;45222;52.458;20.914;2023-04-15T16:01:20;100262.45;;;10.65;80.99
59417;BME280;45222;52.458;20.914;2023-04-15T16:05:06;100259.51;;;10.63;79.93
59417;BME280;45222;52.458;20.914;2023-04-15T16:08:51;100254.46;;;10.60;80.18
59417;BME280;45222;52.458;20.914;2023-04-15T16:12:36;100252.72;;;10.64;80.01
59417;BME280;45222;52.458;20.914;2023-04-15T16:16:22;100259.57;;;10.62;79.07
59417;BME280;45222;52.458;20.914;2023-04-15T16:20:09;100266.08;;;10.59;79.28
59417;BME280;45222;52.458;20.914;2023-04-15T16:23:54;100276.60;;;10.55;79.74
59417;BME280;45222;52.458;20.914;2023-04-15T16:27:39;100278.80;;;10.54;79.90
59417;BME280;45222;52.458;20.914;2023-04-15T16:31:26;100282.52;;;10.50;79.86
59417;BME280;45222;52.458;20.914;2023-04-15T16:35:13;100288.73;;;10.40;79.96
59417;BME280;45222;52.458;20.914;2023-04-15T16:39:00;100295.23;;;10.29;79.85
59417;BME280;45222;52.458;20.914;2023-04-15T16:42:45;100299.84;;;10.23;80.00
59417;BME280;45222;52.458;20.914;2023-04-15T16:46:30;100303.65;;;10.21;80.32
59417;BME280;45222;52.458;20.914;2023-04-15T16:50:16;100302.41;;;10.13;80.13
59417;BME280;45222;52.458;20.914;2023-04-15T16:54:01;100316.54;;;10.15;79.84
59417;BME280;45222;52.458;20.914;2023-04-15T16:57:46;100324.40;;;10.29;79.28
59417;BME280;45222;52.458;20.914;2023-04-15T17:01:31;100331.33;;;10.33;78.81
59417;BME280;45222;52.458;20.914;2023-04-15T17:05:17;100333.73;;;10.31;79.12
59417;BME280;45222;52.458;20.914;2023-04-15T17:09:02;100340.54;;;10.18;79.09
59417;BME280;45222;52.458;20.914;2023-04-15T17:12:47;100341.39;;;9.97;79.10
59417;BME280;45222;52.458;20.914;2023-04-15T17:16:35;100355.12;;;9.80;79.61
59417;BME280;45222;52.458;20.914;2023-04-15T17:20:21;100364.73;;;9.68;79.98
59417;BME280;45222;52.458;20.914;2023-04-15T17:24:06;100367.48;;;9.58;80.39
59417;BME280;45222;52.458;20.914;2023-04-15T17:27:51;100375.83;;;9.46;80.83
59417;BME280;45222;52.458;20.914;2023-04-15T17:31:36;100375.56;;;9.35;81.10
59417;BME280;45222;52.458;20.914;2023-04-15T17:35:22;100378.23;;;9.27;81.42
59417;BME280;45222;52.458;20.914;2023-04-15T17:39:09;100381.20;;;9.24;81.93
59417;BME280;45222;52.458;20.914;2023-04-15T17:42:56;100385.91;;;9.21;82.11
59417;BME280;45222;52.458;20.914;2023-04-15T17:46:42;100388.61;;;9.21;82.09
59417;BME280;45222;52.458;20.914;2023-04-15T17:50:27;100388.91;;;9.17;81.91
59417;BME280;45222;52.458;20.914;2023-04-15T17:54:12;100398.48;;;9.09;82.10
59417;BME280;45222;52.458;20.914;2023-04-15T17:57:57;100406.26;;;9.01;82.04
59417;BME280;45222;52.458;20.914;2023-04-15T18:01:43;100410.69;;;8.97;82.31
59417;BME280;45222;52.458;20.914;2023-04-15T18:05:29;100409.06;;;8.93;82.77
59417;BME280;45222;52.458;20.914;2023-04-15T18:09:14;100411.14;;;8.91;82.61
59417;BME280;45222;52.458;20.914;2023-04-15T18:13:00;100417.59;;;8.85;82.96
59417;BME280;45222;52.458;20.914;2023-04-15T18:16:46;100419.80;;;8.78;82.82
59417;BME280;45222;52.458;20.914;2023-04-15T18:20:32;100432.15;;;8.71;83.20
59417;BME280;45222;52.458;20.914;2023-04-15T18:24:19;100434.62;;;8.66;83.53
59417;BME280;45222;52.458;20.914;2023-04-15T18:28:04;100441.15;;;8.67;83.52
59417;BME280;45222;52.458;20.914;2023-04-15T18:31:50;100449.19;;;8.70;83.66
59417;BME280;45222;52.458;20.914;2023-04-15T18:35:35;100458.21;;;8.71;83.74
59417;BME280;45222;52.458;20.914;2023-04-15T18:39:20;100464.95;;;8.70;83.55
59417;BME280;45222;52.458;20.914;2023-04-15T18:43:05;100466.78;;;8.74;83.55
59417;BME280;45222;52.458;20.914;2023-04-15T18:46:53;100466.10;;;8.78;83.65
59417;BME280;45222;52.458;20.914;2023-04-15T18:50:38;100462.48;;;8.79;83.77
59417;BME280;45222;52.458;20.914;2023-04-15T18:54:23;100468.73;;;8.78;83.66
59417;BME280;45222;52.458;20.914;2023-04-15T18:58:09;100469.23;;;8.74;83.64
59417;BME280;45222;52.458;20.914;2023-04-15T19:01:55;100472.21;;;8.71;83.67
59417;BME280;45222;52.458;20.914;2023-04-15T19:05:40;100478.92;;;8.71;83.70
59417;BME280;45222;52.458;20.914;2023-04-15T19:09:26;100485.45;;;8.72;83.61
59417;BME280;45222;52.458;20.914;2023-04-15T19:13:12;100485.15;;;8.71;83.63
59417;BME280;45222;52.458;20.914;2023-04-15T19:16:57;100488.97;;;8.68;83.49
59417;BME280;45222;52.458;20.914;2023-04-15T19:20:42;100490.94;;;8.68;83.47
59417;BME280;45222;52.458;20.914;2023-04-15T19:24:28;100492.48;;;8.69;83.70
59417;BME280;45222;52.458;20.914;2023-04-15T19:32:36;100490.75;;;8.73;83.52
59417;BME280;45222;52.458;20.914;2023-04-15T19:36:24;100494.91;;;8.70;83.32
59417;BME280;45222;52.458;20.914;2023-04-15T19:40:11;100497.77;;;8.70;83.52
59417;BME280;45222;52.458;20.914;2023-04-15T19:43:56;100500.45;;;8.69;83.47
59417;BME280;45222;52.458;20.914;2023-04-15T19:47:42;100500.25;;;8.70;83.65
59417;BME280;45222;52.458;20.914;2023-04-15T19:51:27;100505.81;;;8.68;83.44